Time;durP1;ratioP1;P1;durP2;ratioP2;P2;SDS_P1;SDS_P2;PMS_P1;PMS_P2;Temp;Humidity;BMP_temperature;BMP_pressure;BME280_temperature;BME280_humidity;BME280_pressure;Samples;Min_cycle;Max_cycle;Signal;HPM_P1;HPM_P2
2022/11/20 00:01:37;;;;;;;51.80;15.27;;;;;;;-0.14;83.40;97364.81;5005565;28;20656;-55
2022/11/20 00:04:03;;;;;;;54.45;16.58;;;;;;;-0.16;83.95;97369.88;5006086;28;20727;-55
2022/11/20 00:06:28;;;;;;;46.72;15.85;;;;;;;-0.25;84.42;97350.84;5005733;28;20614;-57
2022/11/20 00:08:56;;;;;;;60.17;17.25;;;;;;;-0.23;84.86;97349.22;5006439;28;20097;-57
2022/11/20 00:11:23;;;;;;;40.55;13.60;;;;;;;-0.17;85.17;97357.03;5009718;28;20123;-55
2022/11/20 00:13:51;;;;;;;43.97;14.02;;;;;;;0.30;83.97;97361.75;5006919;28;20029;-55
2022/11/20 00:16:21;;;;;;;43.15;13.30;;;;;;;0.47;82.91;97361.34;5006550;28;20114;-55
2022/11/20 00:18:47;;;;;;;38.50;11.98;;;;;;;0.54;82.36;97363.25;5007330;28;20471;-56
2022/11/20 00:21:20;;;;;;;46.00;14.25;;;;;;;0.69;81.57;97359.34;5007430;28;20115;-58
2022/11/20 00:23:46;;;;;;;42.25;12.88;;;;;;;0.77;81.19;97351.03;5006701;28;20053;-55
2022/11/20 00:26:14;;;;;;;45.63;13.88;;;;;;;0.80;81.02;97359.63;5005979;28;20064;-55
2022/11/20 00:28:40;;;;;;;40.42;12.55;;;;;;;0.74;81.05;97352.66;5006652;28;20057;-57
2022/11/20 00:31:09;;;;;;;43.88;13.88;;;;;;;0.85;80.91;97351.22;5006996;28;20499;-59
2022/11/20 00:33:35;;;;;;;43.00;13.82;;;;;;;0.89;80.65;97358.16;5006498;28;20103;-55
2022/11/20 00:36:09;;;;;;;36.78;12.85;;;;;;;1.00;80.64;97365.25;5006243;28;20457;-55
2022/11/20 00:38:34;;;;;;;40.40;13.45;;;;;;;0.95;80.66;97367.69;5006914;28;20471;-56
2022/11/20 00:41:03;;;;;;;38.58;12.95;;;;;;;1.06;80.29;97356.84;5004682;28;20049;-55
2022/11/20 00:43:28;;;;;;;43.08;12.90;;;;;;;1.14;80.19;97352.75;5004526;28;20045;-56
2022/11/20 00:46:04;;;;;;;45.03;14.70;;;;;;;1.20;79.90;97339.25;5004794;28;20120;-56
2022/11/20 00:48:30;;;;;;;40.72;12.75;;;;;;;1.13;80.14;97354.47;5008054;28;20022;-55
2022/11/20 00:50:56;;;;;;;44.70;15.35;;;;;;;1.13;79.83;97354.47;5004127;28;20046;-55
2022/11/20 00:53:22;;;;;;;36.20;12.40;;;;;;;1.15;80.15;97354.53;5008366;28;20071;-56
2022/11/20 00:55:58;;;;;;;45.90;15.10;;;;;;;1.16;80.20;97353.69;5006689;28;20030;-55
2022/11/20 00:58:27;;;;;;;45.35;14.50;;;;;;;1.17;80.58;97340.91;5007517;28;20032;-57
2022/11/20 01:00:53;;;;;;;34.88;11.65;;;;;;;1.12;80.31;97347.59;5007336;28;20045;-55
2022/11/20 01:03:19;;;;;;;35.97;13.63;;;;;;;1.12;80.26;97351.88;5006673;28;20042;-56
2022/11/20 01:05:44;;;;;;;38.15;12.20;;;;;;;1.20;79.74;97364.84;5007515;28;20099;-56
2022/11/20 01:08:10;;;;;;;40.67;13.48;;;;;;;1.18;80.34;97354.56;5005546;28;20027;-56
2022/11/20 01:10:36;;;;;;;36.38;11.82;;;;;;;1.09;80.69;97346.66;5005880;28;20037;-56
2022/11/20 01:15:45;;;;;;;42.30;13.57;;;;;;;1.30;80.27;97359.97;5007955;28;20036;-55
2022/11/20 01:18:10;;;;;;;35.60;11.80;;;;;;;1.22;80.40;97365.78;5007935;28;20021;-56
2022/11/20 01:20:36;;;;;;;37.00;11.75;;;;;;;1.09;80.98;97368.03;5006938;28;20387;-55
2022/11/20 01:23:02;;;;;;;38.63;12.35;;;;;;;1.17;80.97;97355.41;5006517;28;20018;-55
2022/11/20 01:25:28;;;;;;;35.95;11.75;;;;;;;1.23;80.63;97365.78;5005556;28;20110;-55
2022/11/20 01:27:53;;;;;;;38.78;12.43;;;;;;;1.27;80.79;97369.31;5006643;28;20053;-55
2022/11/20 01:30:18;;;;;;;30.33;11.02;;;;;;;1.30;80.70;97369.38;5004189;28;20134;-57
2022/11/20 01:32:44;;;;;;;41.03;11.57;;;;;;;1.33;80.47;97366.88;5003374;28;20034;-55
2022/11/20 01:35:10;;;;;;;35.00;10.93;;;;;;;1.20;80.75;97360.59;5006199;28;20463;-55
2022/11/20 01:37:35;;;;;;;38.35;12.50;;;;;;;1.26;81.04;97367.59;5008115;28;20040;-57
2022/11/20 01:40:01;;;;;;;45.17;12.95;;;;;;;1.32;80.93;97349.78;5009214;28;20014;-56
2022/11/20 01:45:54;;;;;;;36.88;11.80;;;;;;;1.33;80.78;97343.81;5006550;28;20065;-55
2022/11/20 01:48:22;;;;;;;40.53;11.63;;;;;;;1.29;81.19;97349.69;5009763;28;20805;-56
2022/11/20 01:50:48;;;;;;;36.67;11.90;;;;;;;1.43;80.72;97350.03;5009174;28;20045;-56
2022/11/20 01:53:18;;;;;;;39.08;12.32;;;;;;;1.45;80.74;97355.19;5009203;28;20041;-56
2022/11/20 01:55:49;;;;;;;31.55;11.27;;;;;;;1.27;80.94;97351.38;5008966;28;20042;-55
2022/11/20 01:58:16;;;;;;;37.10;10.63;;;;;;;1.24;81.09;97354.72;5010031;28;20025;-55
2022/11/20 02:00:42;;;;;;;30.00;9.32;;;;;;;1.16;81.67;97356.25;5010665;28;20144;-57
2022/11/20 02:03:12;;;;;;;29.77;10.13;;;;;;;1.25;81.80;97353.00;5008581;28;20169;-57
2022/11/20 02:05:45;;;;;;;36.55;11.00;;;;;;;1.21;81.89;97346.09;5008736;28;20029;-55
2022/11/20 02:08:11;;;;;;;34.42;11.82;;;;;;;1.24;81.76;97341.03;5009057;28;20026;-56
2022/11/20 02:10:37;;;;;;;41.60;12.65;;;;;;;1.37;81.51;97345.63;5009411;28;20030;-56
2022/11/20 02:15:47;;;;;;;37.83;11.90;;;;;;;1.24;81.87;97341.91;5008573;28;20167;-55
2022/11/20 02:18:17;;;;;;;43.47;12.27;;;;;;;1.47;81.38;97343.25;5007740;28;20713;-57
2022/11/20 02:20:46;;;;;;;35.45;10.38;;;;;;;1.29;81.43;97339.44;5007509;28;20046;-55
2022/11/20 02:23:12;;;;;;;39.75;11.93;;;;;;;1.31;81.58;97337.81;5007936;28;20068;-55
2022/11/20 02:25:39;;;;;;;42.60;12.93;;;;;;;1.33;81.68;97335.28;5007713;28;20064;-58
2022/11/20 02:28:06;;;;;;;36.90;12.95;;;;;;;1.42;81.30;97336.31;5011323;28;20033;-56
2022/11/20 02:30:31;;;;;;;35.38;11.73;;;;;;;1.34;81.27;97335.28;5007870;28;20171;-55
2022/11/20 02:32:57;;;;;;;40.08;11.82;;;;;;;1.14;82.17;97340.84;5010587;28;20029;-55
2022/11/20 02:35:23;;;;;;;45.97;12.27;;;;;;;1.34;82.19;97342.13;5008631;28;20061;-55
2022/11/20 02:37:52;;;;;;;39.05;11.85;;;;;;;1.20;82.32;97352.94;5009262;28;20115;-55
2022/11/20 02:40:18;;;;;;;42.42;12.88;;;;;;;1.26;82.36;97342.81;5008087;28;20186;-55
2022/11/20 02:42:44;;;;;;;34.10;12.35;;;;;;;1.31;82.39;97342.94;5008110;28;20036;-55
2022/11/20 02:45:10;;;;;;;41.38;12.65;;;;;;;1.43;82.02;97353.47;5008699;28;20030;-56
2022/11/20 02:47:35;;;;;;;41.25;13.10;;;;;;;1.37;82.21;97340.50;5009278;28;20564;-55
2022/11/20 02:50:01;;;;;;;45.80;13.52;;;;;;;1.39;82.18;97341.41;5007431;28;20663;-56
2022/11/20 02:52:26;;;;;;;38.40;12.15;;;;;;;1.44;81.96;97344.06;5005759;28;20423;-55
2022/11/20 02:54:52;;;;;;;39.65;12.82;;;;;;;1.40;81.80;97337.13;5009048;28;20784;-58
2022/11/20 02:57:17;;;;;;;39.88;13.57;;;;;;;1.44;81.77;97336.38;5009443;28;20044;-56
2022/11/20 02:59:42;;;;;;;39.55;12.65;;;;;;;1.39;81.68;97328.59;5008540;28;20032;-56
2022/11/20 03:02:08;;;;;;;47.00;13.68;;;;;;;1.48;81.67;97324.50;5009311;28;20286;-56
2022/11/20 03:04:33;;;;;;;35.42;12.43;;;;;;;1.49;81.55;97332.19;5009312;28;20108;-56
2022/11/20 03:06:58;;;;;;;42.15;12.63;;;;;;;1.37;81.88;97334.53;5006801;28;20045;-55
2022/11/20 03:09:24;;;;;;;48.30;13.35;;;;;;;1.45;81.88;97338.13;5008132;28;20030;-56
2022/11/20 03:11:49;;;;;;;25.80;8.55;;;;;;;1.21;82.42;97336.72;5007354;28;20037;-56
2022/11/20 03:14:15;;;;;;;52.85;15.27;;;;;;;1.37;82.42;97334.53;5007457;28;20030;-56
2022/11/20 03:16:40;;;;;;;38.95;11.30;;;;;;;1.26;82.32;97340.25;5005340;28;20087;-57
2022/11/20 03:19:06;;;;;;;39.42;12.27;;;;;;;1.33;82.58;97331.00;5008663;28;20044;-57
2022/11/20 03:21:33;;;;;;;54.42;14.20;;;;;;;1.36;82.32;97327.63;5006928;28;20042;-56
2022/11/20 03:23:59;;;;;;;55.35;13.65;;;;;;;1.40;82.24;97326.88;5006931;28;20026;-57
2022/11/20 03:26:27;;;;;;;52.72;14.15;;;;;;;1.39;82.45;97330.28;5009917;28;20036;-56
2022/11/20 03:28:55;;;;;;;37.53;12.68;;;;;;;1.37;82.52;97329.41;5008993;28;20053;-56
2022/11/20 03:31:23;;;;;;;47.55;14.52;;;;;;;1.43;82.49;97329.53;5005896;28;20029;-55
2022/11/20 03:33:49;;;;;;;47.20;13.55;;;;;;;1.25;82.44;97330.84;5006737;28;20069;-55
2022/11/20 03:36:17;;;;;;;43.83;13.45;;;;;;;1.37;82.52;97322.56;5005879;28;20037;-55
2022/11/20 03:38:43;;;;;;;53.30;13.90;;;;;;;1.42;82.30;97318.38;5007778;28;20715;-56
2022/11/20 03:41:12;;;;;;;43.20;12.55;;;;;;;1.31;82.30;97319.88;5007226;28;20076;-55
2022/11/20 03:43:38;;;;;;;48.75;13.13;;;;;;;1.28;82.38;97317.22;5006673;28;20544;-55
2022/11/20 03:46:04;;;;;;;50.65;14.55;;;;;;;1.34;82.57;97317.34;5006119;28;20045;-56
2022/11/20 03:48:30;;;;;;;41.33;12.30;;;;;;;1.29;82.29;97313.81;5006864;28;20057;-56
2022/11/20 03:51:08;;;;;;;53.95;14.57;;;;;;;1.29;82.65;97318.94;5007149;28;20067;-56
2022/11/20 03:53:34;;;;;;;50.53;14.32;;;;;;;1.27;82.64;97311.22;5008347;28;20033;-59
2022/11/20 03:55:59;;;;;;;51.35;13.93;;;;;;;1.24;82.71;97311.19;5006611;28;20052;-56
2022/11/20 03:58:25;;;;;;;47.38;14.18;;;;;;;1.24;82.78;97306.06;5007001;28;20053;-56
2022/11/20 04:00:50;;;;;;;60.92;14.93;;;;;;;1.25;82.79;97314.59;5007738;28;20037;-55
2022/11/20 04:03:15;;;;;;;58.45;15.00;;;;;;;1.40;82.43;97311.50;5009404;28;20661;-56
2022/11/20 04:05:41;;;;;;;62.05;14.52;;;;;;;1.35;82.14;97316.53;5008582;28;20823;-56
2022/11/20 04:08:06;;;;;;;62.47;15.23;;;;;;;1.27;82.46;97315.50;5008905;28;20793;-57
2022/11/20 04:10:31;;;;;;;34.47;9.85;;;;;;;1.24;82.73;97315.44;5006643;28;20634;-58
2022/11/20 04:12:56;;;;;;;57.00;15.55;;;;;;;1.29;82.64;97308.69;5007187;28;20829;-56
2022/11/20 04:15:22;;;;;;;66.65;14.77;;;;;;;1.36;82.77;97312.25;5007595;28;20489;-56
2022/11/20 04:17:47;;;;;;;48.28;14.13;;;;;;;1.29;82.74;97308.69;5006165;28;20899;-55
2022/11/20 04:20:13;;;;;;;60.42;15.45;;;;;;;1.25;82.71;97310.34;5004273;28;20077;-55
2022/11/20 04:22:38;;;;;;;61.95;14.20;;;;;;;1.30;82.87;97313.03;5008292;28;20655;-57
2022/11/20 04:25:04;;;;;;;61.85;16.05;;;;;;;1.34;82.99;97314.78;5008089;28;20449;-56
2022/11/20 04:27:30;;;;;;;49.00;13.40;;;;;;;1.28;82.87;97309.53;5007153;28;20080;-56
2022/11/20 04:29:56;;;;;;;61.20;15.35;;;;;;;1.28;83.00;97301.84;5006221;28;20025;-55
2022/11/20 04:32:21;;;;;;;66.07;14.80;;;;;;;1.33;82.72;97296.84;5005023;28;20046;-56
2022/11/20 04:34:46;;;;;;;48.22;13.60;;;;;;;1.27;83.12;97300.97;5007701;28;20898;-56
2022/11/20 04:37:11;;;;;;;46.75;13.88;;;;;;;1.33;82.91;97299.41;5006383;28;20571;-55
2022/11/20 04:39:37;;;;;;;58.88;14.68;;;;;;;1.41;82.94;97296.16;5006743;28;20032;-55
2022/11/20 04:44:46;;;;;;;59.25;15.27;;;;;;;1.44;82.51;97295.38;5007793;28;20092;-55
2022/11/20 04:47:12;;;;;;;58.40;14.35;;;;;;;1.39;82.85;97297.84;5007214;28;20578;-55
2022/11/20 04:49:37;;;;;;;50.88;13.82;;;;;;;1.35;82.63;97302.84;5005694;28;20038;-56
2022/11/20 04:52:02;;;;;;;43.65;13.50;;;;;;;1.28;82.90;97297.59;5003521;28;20041;-59
2022/11/20 04:54:28;;;;;;;51.28;13.02;;;;;;;1.23;83.21;97298.34;5005390;28;20080;-56
2022/11/20 04:56:53;;;;;;;56.95;14.57;;;;;;;1.27;83.26;97290.72;5005878;28;20069;-55
2022/11/20 04:59:18;;;;;;;45.95;13.45;;;;;;;1.30;83.06;97295.09;5007327;28;20057;-56
2022/11/20 05:01:44;;;;;;;51.28;13.23;;;;;;;1.21;83.26;97298.28;5006052;28;20204;-56
2022/11/20 05:04:09;;;;;;;49.97;12.70;;;;;;;1.24;83.31;97300.06;5005604;28;20698;-55
2022/11/20 05:06:34;;;;;;;51.92;13.82;;;;;;;1.36;83.11;97292.63;5019180;28;20498;-56
2022/11/20 05:09:00;;;;;;;78.85;15.05;;;;;;;1.39;83.08;97290.16;5005728;28;20507;-55
2022/11/20 05:11:28;;;;;;;61.08;13.80;;;;;;;1.29;83.09;97298.44;5006071;28;20095;-57
2022/11/20 05:13:54;;;;;;;53.28;13.23;;;;;;;1.32;83.45;97288.28;5010533;28;20032;-57
2022/11/20 05:16:24;;;;;;;60.92;14.18;;;;;;;1.31;83.39;97286.56;5009361;28;20042;-57
2022/11/20 05:18:50;;;;;;;59.50;14.93;;;;;;;1.40;83.55;97289.31;5010746;28;20044;-55
2022/11/20 05:21:17;;;;;;;64.43;14.02;;;;;;;1.42;83.44;97290.19;5009565;28;20052;-56
2022/11/20 05:23:43;;;;;;;54.05;13.13;;;;;;;1.27;83.48;97289.88;5010363;28;20018;-58
2022/11/20 05:26:14;;;;;;;53.55;13.20;;;;;;;1.40;83.24;97293.56;5006940;28;20806;-56
2022/11/20 05:28:39;;;;;;;42.00;12.15;;;;;;;1.34;83.31;97289.16;5010742;28;20049;-55
2022/11/20 05:31:05;;;;;;;76.80;16.63;;;;;;;1.39;83.53;97284.16;5008975;28;20137;-55
2022/11/20 05:33:31;;;;;;;62.90;13.57;;;;;;;1.39;83.57;97285.03;5011359;28;20037;-56
2022/11/20 05:35:59;;;;;;;78.97;15.25;;;;;;;1.33;83.82;97282.31;5009405;28;20042;-56
2022/11/20 05:38:25;;;;;;;53.83;13.77;;;;;;;1.41;83.54;97282.50;5009852;28;20026;-55
2022/11/20 05:40:50;;;;;;;93.32;15.88;;;;;;;1.41;83.50;97282.50;5009674;28;20053;-56
2022/11/20 05:43:15;;;;;;;67.13;14.85;;;;;;;1.41;83.58;97285.06;5009551;28;20030;-55
2022/11/20 05:45:41;;;;;;;71.25;15.40;;;;;;;1.50;83.40;97279.25;5009387;28;20116;-57
2022/11/20 05:48:06;;;;;;;55.80;14.95;;;;;;;1.47;83.40;97277.50;5010560;28;20484;-55
2022/11/20 05:50:31;;;;;;;59.58;14.93;;;;;;;1.45;83.63;97273.19;5008173;28;20543;-58
2022/11/20 05:53:00;;;;;;;61.10;14.52;;;;;;;1.58;83.40;97271.72;5010355;28;20494;-55
2022/11/20 05:55:26;;;;;;;45.38;12.15;;;;;;;1.51;83.29;97271.59;5009548;28;20033;-55
2022/11/20 05:57:55;;;;;;;58.20;13.45;;;;;;;1.49;83.51;97267.28;5008293;28;20026;-55
2022/11/20 06:00:20;;;;;;;72.63;15.63;;;;;;;1.54;83.53;97273.38;5007665;28;20099;-56
2022/11/20 06:02:45;;;;;;;55.80;14.32;;;;;;;1.53;83.20;97272.50;5010221;28;20586;-58
2022/11/20 06:05:10;;;;;;;51.03;12.43;;;;;;;1.53;83.44;97272.50;5008860;28;20052;-55
2022/11/20 06:07:36;;;;;;;59.67;15.13;;;;;;;1.40;83.63;97276.50;5008193;28;20022;-56
2022/11/20 06:10:01;;;;;;;62.13;15.70;;;;;;;1.33;84.08;97268.66;5008177;28;20021;-56
2022/11/20 06:12:27;;;;;;;60.58;14.07;;;;;;;1.41;83.88;97270.53;5010305;28;20132;-56
2022/11/20 06:14:52;;;;;;;59.53;14.50;;;;;;;1.40;84.05;97276.50;5009372;28;20080;-55
2022/11/20 06:17:17;;;;;;;55.08;14.02;;;;;;;1.50;83.66;97279.25;5007826;28;20042;-56
2022/11/20 06:19:42;;;;;;;44.42;13.00;;;;;;;1.58;83.54;97277.72;5011114;28;20025;-56
2022/11/20 06:22:08;;;;;;;55.80;13.98;;;;;;;1.46;83.84;97275.78;5008086;28;20193;-55
2022/11/20 06:24:33;;;;;;;67.47;15.77;;;;;;;1.54;83.76;97274.25;5008755;28;20802;-56
2022/11/20 06:26:58;;;;;;;93.13;15.82;;;;;;;1.54;83.70;97275.94;5007296;28;20129;-55
2022/11/20 06:29:24;;;;;;;60.97;14.48;;;;;;;1.52;83.60;97270.75;5008533;28;20445;-58
2022/11/20 06:31:49;;;;;;;56.10;13.82;;;;;;;1.51;83.57;97273.28;5008237;28;20602;-56
2022/11/20 06:34:14;;;;;;;57.75;14.55;;;;;;;1.46;84.14;97270.66;5009211;28;20109;-55
2022/11/20 06:36:40;;;;;;;63.85;14.02;;;;;;;1.55;83.71;97268.28;5008212;28;20763;-56
2022/11/20 06:39:05;;;;;;;56.58;14.35;;;;;;;1.53;83.64;97269.94;5008993;28;20458;-57
2022/11/20 06:41:30;;;;;;;47.95;12.23;;;;;;;1.45;83.71;97273.19;5008754;28;20334;-56
2022/11/20 06:43:56;;;;;;;54.22;13.52;;;;;;;1.49;83.85;97275.81;5009644;28;20029;-57
2022/11/20 06:46:22;;;;;;;61.92;14.02;;;;;;;1.55;84.34;97280.22;5008118;28;20049;-56
2022/11/20 06:48:48;;;;;;;57.47;13.60;;;;;;;1.47;84.30;97281.75;5008900;28;20033;-55
2022/11/20 06:51:14;;;;;;;60.20;14.23;;;;;;;1.53;84.04;97279.34;5008627;28;20038;-55
2022/11/20 06:53:39;;;;;;;53.28;12.52;;;;;;;1.49;84.42;97290.34;5009586;28;20037;-55
2022/11/20 06:56:06;;;;;;;72.03;16.65;;;;;;;1.55;84.21;97280.22;5007611;28;20038;-58
2022/11/20 06:58:33;;;;;;;103.75;15.93;;;;;;;1.61;84.07;97290.63;5006111;28;20812;-55
2022/11/20 07:00:59;;;;;;;65.30;14.30;;;;;;;1.60;84.14;97293.13;5006965;28;20042;-56
2022/11/20 07:03:25;;;;;;;52.22;13.57;;;;;;;1.47;84.37;97298.00;5007414;28;20148;-55
2022/11/20 07:05:50;;;;;;;61.05;12.98;;;;;;;1.61;84.24;97294.88;5007451;28;20041;-55
2022/11/20 07:08:15;;;;;;;52.80;12.85;;;;;;;1.52;84.43;97301.53;5006601;28;20026;-55
2022/11/20 07:10:41;;;;;;;62.60;13.75;;;;;;;1.59;84.46;97299.97;5008259;28;20033;-55
2022/11/20 07:13:06;;;;;;;52.33;13.55;;;;;;;1.56;84.13;97295.63;5007742;28;20041;-55
2022/11/20 07:15:32;;;;;;;47.63;13.05;;;;;;;1.59;84.20;97296.53;5024751;28;20033;-55
2022/11/20 07:18:01;;;;;;;62.95;14.00;;;;;;;1.66;84.17;97304.38;5009033;28;20524;-55
2022/11/20 07:20:27;;;;;;;51.05;13.73;;;;;;;1.65;84.37;97302.66;5008239;28;20030;-55
2022/11/20 07:22:56;;;;;;;53.70;13.80;;;;;;;1.62;84.60;97307.72;5008789;28;20119;-55
2022/11/20 07:25:22;;;;;;;52.53;14.23;;;;;;;1.66;84.72;97296.69;5006843;28;20025;-55
2022/11/20 07:27:48;;;;;;;52.38;12.95;;;;;;;1.69;84.95;97303.59;5008194;28;20083;-55
2022/11/20 07:30:14;;;;;;;51.08;14.65;;;;;;;1.54;85.16;97299.00;5007069;28;20030;-56
2022/11/20 07:32:40;;;;;;;56.28;15.05;;;;;;;1.63;85.30;97299.19;5007852;28;20451;-55
2022/11/20 07:35:05;;;;;;;57.72;14.68;;;;;;;1.65;85.43;97297.53;5006829;28;20487;-55
2022/11/20 07:37:34;;;;;;;44.25;12.43;;;;;;;1.67;85.59;97298.41;5007174;28;20038;-58
2022/11/20 07:39:59;;;;;;;43.90;12.48;;;;;;;1.75;85.56;97306.25;5007216;28;20025;-55
2022/11/20 07:42:24;;;;;;;65.28;14.70;;;;;;;1.78;85.61;97310.63;5007489;28;20063;-54
2022/11/20 07:44:50;;;;;;;68.97;15.60;;;;;;;1.85;85.45;97303.91;5006567;28;20947;-57
2022/11/20 07:47:15;;;;;;;55.67;13.75;;;;;;;1.81;85.44;97303.84;5007667;28;20045;-55
2022/11/20 07:49:40;;;;;;;58.75;14.65;;;;;;;1.98;85.34;97305.88;5005966;28;20851;-55
2022/11/20 07:52:06;;;;;;;59.85;14.38;;;;;;;1.88;85.60;97307.38;5007094;28;20589;-56
2022/11/20 07:54:31;;;;;;;20.88;6.60;;;;;;;1.65;84.98;97304.34;5007571;28;20022;-56
2022/11/20 07:56:56;;;;;;;35.88;11.93;;;;;;;1.73;85.19;97312.19;5005838;28;20038;-55
2022/11/20 07:59:22;;;;;;;40.42;12.45;;;;;;;1.88;85.91;97309.06;5003943;28;20041;-55
2022/11/20 08:01:47;;;;;;;53.42;13.40;;;;;;;2.17;85.65;97306.22;4997480;28;20103;-55
2022/11/20 08:04:13;;;;;;;35.42;10.63;;;;;;;2.32;85.30;97308.22;5008183;28;20128;-55
2022/11/20 08:06:39;;;;;;;32.55;9.77;;;;;;;2.33;84.60;97312.50;5009088;28;20038;-55
2022/11/20 08:09:04;;;;;;;40.97;12.43;;;;;;;2.39;84.30;97312.63;5013901;28;20038;-55
2022/11/20 08:14:13;;;;;;;39.10;10.38;;;;;;;2.36;83.74;97304.88;5005134;28;20049;-56
2022/11/20 08:16:39;;;;;;;45.95;13.63;;;;;;;2.47;83.76;97305.94;5008678;28;20033;-55
2022/11/20 08:19:04;;;;;;;42.63;13.40;;;;;;;2.51;83.44;97308.53;5008782;28;20044;-55
2022/11/20 08:21:31;;;;;;;34.95;11.43;;;;;;;2.39;83.26;97307.50;5009337;28;20053;-55
2022/11/20 08:23:57;;;;;;;48.80;14.77;;;;;;;2.29;83.20;97306.47;5008715;28;20120;-56
2022/11/20 08:26:23;;;;;;;48.55;14.93;;;;;;;2.24;83.21;97308.09;5006333;28;20033;-55
2022/11/20 08:28:49;;;;;;;51.45;13.90;;;;;;;2.21;83.20;97306.31;5007069;28;20118;-55
2022/11/20 08:31:14;;;;;;;45.28;12.98;;;;;;;2.42;82.93;97309.25;5005149;28;20048;-54
2022/11/20 08:33:40;;;;;;;48.42;14.38;;;;;;;2.54;82.85;97306.03;5010252;28;20029;-55
2022/11/20 08:36:05;;;;;;;41.58;11.95;;;;;;;2.68;82.19;97309.69;5009842;28;20045;-55
2022/11/20 08:38:31;;;;;;;49.13;13.52;;;;;;;2.67;82.40;97309.69;5010004;28;20518;-57
2022/11/20 08:43:42;;;;;;;33.63;9.43;;;;;;;2.73;82.13;97310.66;5009890;28;20052;-56
2022/11/20 08:46:07;;;;;;;28.83;8.18;;;;;;;2.71;82.03;97314.88;5010645;28;20037;-54
2022/11/20 08:48:32;;;;;;;28.83;8.45;;;;;;;2.83;82.29;97306.53;5008688;28;20029;-55
2022/11/20 08:50:59;;;;;;;24.92;7.00;;;;;;;2.62;82.02;97314.75;5006692;28;20056;-54
2022/11/20 08:53:25;;;;;;;29.27;8.43;;;;;;;2.90;82.28;97312.66;5007376;28;20127;-54
2022/11/20 08:55:50;;;;;;;19.35;5.75;;;;;;;3.49;83.76;97312.66;5008378;28;20042;-55
2022/11/20 08:58:15;;;;;;;23.70;6.28;;;;;;;3.83;85.44;97312.25;5009175;28;20124;-55
2022/11/20 09:00:41;;;;;;;28.08;8.32;;;;;;;3.39;84.59;97312.50;5004417;28;20037;-54
2022/11/20 09:03:06;;;;;;;29.58;8.68;;;;;;;3.45;82.86;97309.16;5006373;28;20582;-54
2022/11/20 09:05:32;;;;;;;26.05;7.60;;;;;;;3.14;81.85;97311.28;5006323;28;20041;-56
2022/11/20 09:07:58;;;;;;;27.48;7.45;;;;;;;2.95;81.81;97311.00;5008311;28;20480;-54
2022/11/20 09:10:23;;;;;;;22.17;7.47;;;;;;;3.24;81.22;97312.31;5006343;28;20556;-56
2022/11/20 09:12:49;;;;;;;27.67;8.77;;;;;;;3.11;80.91;97303.53;5010227;28;20148;-55
2022/11/20 09:15:14;;;;;;;30.17;8.60;;;;;;;2.92;81.21;97297.25;5006892;28;20030;-55
2022/11/20 09:17:40;;;;;;;37.45;10.48;;;;;;;3.10;81.16;97306.94;5007252;28;20017;-54
2022/11/20 09:20:06;;;;;;;37.63;11.52;;;;;;;3.24;81.01;97299.44;5007131;28;20026;-53
2022/11/20 09:22:31;;;;;;;47.63;13.07;;;;;;;3.42;81.01;97293.72;5008964;28;20018;-56
2022/11/20 09:24:56;;;;;;;41.50;11.68;;;;;;;3.14;80.49;97301.00;5005494;28;20037;-57
2022/11/20 09:27:22;;;;;;;34.72;11.82;;;;;;;3.12;80.69;97290.72;5006094;28;20068;-55
2022/11/20 09:29:47;;;;;;;41.95;12.25;;;;;;;3.32;80.44;97287.56;5008193;28;20026;-54
2022/11/20 09:32:12;;;;;;;36.65;11.77;;;;;;;3.07;80.53;97296.63;5009370;28;20157;-56
2022/11/20 09:34:38;;;;;;;24.77;8.05;;;;;;;3.03;80.82;97294.84;5003787;28;20029;-56
2022/11/20 09:37:03;;;;;;;22.25;6.75;;;;;;;2.83;81.30;97285.97;5006978;28;20077;-54
2022/11/20 09:39:28;;;;;;;30.45;9.07;;;;;;;2.86;83.89;97290.31;5010104;28;20108;-56
2022/11/20 09:42:15;;;;;;;36.65;6.70;;;;;;;4.58;86.49;97285.59;5007319;28;20806;-55
2022/11/20 09:45:06;;;;;;;10.45;2.03;;;;;;;6.03;86.95;97285.63;5009527;28;20044;-55
2022/11/20 09:47:49;;;;;;;14.90;2.88;;;;;;;7.57;86.76;97277.94;5004724;28;20137;-56
2022/11/20 09:50:37;;;;;;;11.18;3.28;;;;;;;5.13;87.63;97281.75;5003992;28;20040;-55
2022/11/20 09:53:35;;;;;;;15.82;3.60;;;;;;;3.64;88.76;97289.72;5007659;28;20029;-54
2022/11/20 09:56:03;;;;;;;14.38;2.75;;;;;;;3.46;88.76;97289.47;5006677;28;20046;-55
2022/11/20 09:58:39;;;;;;;9.55;2.72;;;;;;;3.30;89.14;97278.97;5009700;28;20563;-54
2022/11/20 10:01:14;;;;;;;10.68;2.03;;;;;;;3.55;88.81;97294.72;5010442;28;20487;-55
2022/11/20 10:03:49;;;;;;;11.20;2.13;;;;;;;3.45;89.00;97288.59;5012234;28;20108;-56
2022/11/20 10:06:18;;;;;;;13.40;2.75;;;;;;;3.41;89.12;97296.25;5010835;28;20491;-54
2022/11/20 10:09:14;;;;;;;9.35;1.70;;;;;;;3.43;89.00;97287.72;5011911;28;20029;-54
2022/11/20 10:11:51;;;;;;;10.23;1.80;;;;;;;3.15;89.76;97276.19;5010395;28;20037;-54
2022/11/20 10:14:50;;;;;;;11.98;2.30;;;;;;;3.23;90.04;97278.00;5012117;28;20064;-55
2022/11/20 10:17:30;;;;;;;17.77;3.08;;;;;;;2.91;89.88;97275.84;5005454;28;20034;-54
2022/11/20 10:20:24;;;;;;;17.00;2.42;;;;;;;3.33;89.84;97278.13;5011814;28;20030;-56
2022/11/20 10:23:17;;;;;;;13.30;2.00;;;;;;;2.92;89.70;97268.97;5011698;28;20132;-54
2022/11/20 10:25:48;;;;;;;15.52;2.17;;;;;;;3.07;89.55;97276.94;5009679;28;20045;-54
2022/11/20 10:28:26;;;;;;;10.73;1.83;;;;;;;3.42;89.37;97278.28;5007460;28;20399;-56
2022/11/20 10:31:17;;;;;;;14.23;2.05;;;;;;;3.12;88.35;97267.59;5009753;28;20033;-55
2022/11/20 10:33:46;;;;;;;16.85;2.70;;;;;;;3.21;88.48;97264.28;5012732;28;20057;-55
2022/11/20 10:36:21;;;;;;;15.80;2.30;;;;;;;2.84;87.64;97267.19;5012415;28;20596;-55
2022/11/20 10:38:51;;;;;;;17.80;3.75;;;;;;;3.10;87.61;97274.41;5011879;28;20069;-54
2022/11/20 10:41:25;;;;;;;7.82;1.52;;;;;;;3.23;87.27;97265.16;5011734;28;20072;-54
2022/11/20 10:44:04;;;;;;;14.90;2.20;;;;;;;3.44;85.99;97265.44;5010667;28;20713;-54
2022/11/20 10:46:38;;;;;;;13.65;2.00;;;;;;;3.19;85.51;97259.97;5010400;28;20063;-54
2022/11/20 10:49:10;;;;;;;13.38;2.88;;;;;;;3.15;85.25;97253.91;5010708;28;20034;-56
2022/11/20 10:51:44;;;;;;;10.45;1.83;;;;;;;3.09;85.45;97259.81;5011155;28;20037;-54
2022/11/20 10:54:45;;;;;;;9.60;1.88;;;;;;;3.25;85.09;97252.34;5011786;28;20528;-56
2022/11/20 10:57:35;;;;;;;14.07;2.33;;;;;;;3.72;84.71;97251.25;5009951;28;20043;-55
2022/11/20 11:00:10;;;;;;;15.70;2.58;;;;;;;3.73;84.50;97246.94;5010483;28;20026;-57
2022/11/20 11:02:46;;;;;;;15.35;3.25;;;;;;;3.63;83.63;97251.09;5009325;28;20041;-54
2022/11/20 11:05:38;;;;;;;16.88;4.32;;;;;;;3.80;83.26;97237.59;5010668;28;20021;-55
2022/11/20 11:08:10;;;;;;;22.55;6.05;;;;;;;3.82;82.67;97230.78;5011492;28;20065;-56
2022/11/20 11:10:51;;;;;;;17.20;3.80;;;;;;;3.50;82.98;97239.81;5010057;28;20033;-55
2022/11/20 11:13:25;;;;;;;17.50;5.15;;;;;;;3.77;84.03;97235.84;5011635;28;20029;-55
2022/11/20 11:15:52;;;;;;;11.27;3.47;;;;;;;3.50;84.01;97232.94;5010367;28;20059;-54
2022/11/20 11:18:30;;;;;;;15.73;3.83;;;;;;;3.40;84.37;97231.13;5010869;28;20079;-55
2022/11/20 11:20:57;;;;;;;11.05;3.42;;;;;;;3.30;84.56;97230.13;5009377;28;20120;-54
2022/11/20 11:23:40;;;;;;;15.43;4.18;;;;;;;3.01;85.09;97238.31;5010054;28;20029;-56
2022/11/20 11:26:19;;;;;;;19.23;4.50;;;;;;;3.12;86.16;97241.03;5009329;28;20068;-55
2022/11/20 11:28:57;;;;;;;14.68;3.28;;;;;;;3.04;88.79;97240.06;5010121;28;20053;-56
2022/11/20 11:31:32;;;;;;;12.40;2.05;;;;;;;3.03;90.22;97279.41;5008785;28;20045;-54
2022/11/20 11:34:12;;;;;;;9.50;1.70;;;;;;;3.04;90.29;97284.59;5009596;28;20054;-56
2022/11/20 11:36:37;;;;;;;14.18;2.08;;;;;;;3.09;90.40;97300.09;5008468;28;20129;-57
2022/11/20 11:39:06;;;;;;;13.00;2.20;;;;;;;2.76;90.70;97275.59;5023812;28;20644;-55
2022/11/20 11:41:36;;;;;;;14.07;2.20;;;;;;;2.87;91.34;97271.50;5011447;28;20061;-55
2022/11/20 11:47:11;;;;;;;9.77;1.73;;;;;;;3.17;92.76;97261.66;5009655;28;20045;-54
2022/11/20 11:49:36;;;;;;;14.17;2.10;;;;;;;3.83;94.17;97264.22;5010670;28;20029;-54
2022/11/20 11:52:07;;;;;;;11.48;1.90;;;;;;;3.91;97.35;97256.59;5011697;28;20048;-54